createdAt,value
2022-08-19T00:02:07.707Z,9.27
2022-08-19T00:04:40.944Z,9.25
2022-08-19T00:07:08.592Z,15.43
2022-08-19T00:09:59.402Z,8.35
2022-08-19T00:12:48.814Z,7.38
2022-08-19T00:15:21.857Z,11.30
2022-08-19T00:17:58.244Z,13.73
2022-08-19T00:20:30.990Z,10.27
2022-08-19T00:22:58.783Z,12.20
2022-08-19T00:25:29.934Z,11.63
2022-08-19T00:28:02.937Z,8.63
2022-08-19T00:30:35.733Z,8.10
2022-08-19T00:33:08.280Z,7.87
2022-08-19T00:35:40.533Z,10.35
2022-08-19T00:38:10.426Z,8.90
2022-08-19T00:40:41.874Z,10.27
2022-08-19T00:43:21.331Z,10.25
2022-08-19T00:45:52.958Z,10.02
2022-08-19T00:48:25.465Z,10.15
2022-08-19T00:50:56.556Z,8.90
2022-08-19T00:53:37.670Z,11.82
2022-08-19T00:56:08.321Z,9.95
2022-08-19T00:58:38.245Z,10.07
2022-08-19T01:01:09.225Z,7.63
2022-08-19T01:06:30.730Z,9.93
2022-08-19T01:09:02.452Z,11.02
2022-08-19T01:11:37.718Z,8.73
2022-08-19T01:14:09.698Z,7.88
2022-08-19T01:16:43.685Z,6.07
2022-08-19T01:19:28.953Z,5.80
2022-08-19T01:22:13.104Z,9.65
2022-08-19T01:24:49.729Z,7.40
2022-08-19T01:27:22.696Z,7.25
2022-08-19T01:29:54.797Z,7.28
2022-08-19T01:32:32.323Z,7.05
2022-08-19T01:35:06.957Z,9.18
2022-08-19T01:38:11.344Z,7.13
2022-08-19T01:40:43.399Z,5.50
2022-08-19T01:43:14.089Z,7.47
2022-08-19T01:45:46.596Z,5.53
2022-08-19T01:48:16.169Z,4.70
2022-08-19T01:50:45.151Z,5.72
2022-08-19T01:53:15.777Z,6.00
2022-08-19T01:55:46.812Z,6.53
2022-08-19T01:58:25.185Z,6.93
2022-08-19T02:00:52.762Z,7.75
2022-08-19T02:03:23.336Z,9.40
2022-08-19T02:06:05.745Z,8.00
2022-08-19T02:08:40.409Z,8.55
2022-08-19T02:11:12.085Z,8.20
2022-08-19T02:13:39.696Z,5.60
2022-08-19T02:16:13.408Z,9.98
2022-08-19T02:18:45.573Z,7.07
2022-08-19T02:21:17.909Z,9.02
2022-08-19T02:23:48.127Z,7.75
2022-08-19T02:26:19.700Z,5.95
2022-08-19T02:28:49.856Z,6.85
2022-08-19T02:31:22.551Z,7.47
2022-08-19T02:34:00.573Z,8.50
2022-08-19T02:36:30.851Z,6.28
2022-08-19T02:39:03.114Z,10.30
2022-08-19T02:41:37.481Z,8.38
2022-08-19T02:46:58.990Z,7.47
2022-08-19T02:49:34.798Z,11.85
2022-08-19T02:52:07.964Z,7.13
2022-08-19T02:54:38.339Z,9.85
2022-08-19T02:57:08.969Z,10.05
2022-08-19T02:59:37.254Z,10.90
2022-08-19T03:02:04.675Z,11.90
2022-08-19T03:04:37.216Z,7.80
2022-08-19T03:07:11.053Z,10.23
2022-08-19T03:09:43.329Z,9.38
2022-08-19T03:12:14.580Z,11.23
2022-08-19T03:14:45.109Z,12.77
2022-08-19T03:17:17.110Z,8.35
2022-08-19T03:19:46.911Z,10.50
2022-08-19T03:22:19.379Z,6.78
2022-08-19T03:24:51.957Z,8.40
2022-08-19T03:27:21.564Z,11.15
2022-08-19T03:29:52.004Z,8.52
2022-08-19T03:32:33.060Z,10.23
2022-08-19T03:35:02.737Z,12.27
2022-08-19T03:37:31.338Z,10.80
2022-08-19T03:40:02.326Z,5.85
2022-08-19T03:42:48.861Z,12.65
2022-08-19T03:45:23.292Z,6.88
2022-08-19T03:47:51.822Z,7.82
2022-08-19T03:50:21.455Z,10.23
2022-08-19T03:52:54.192Z,7.43
2022-08-19T03:55:26.148Z,10.18
2022-08-19T03:57:59.224Z,7.20
2022-08-19T04:00:32.408Z,9.02
2022-08-19T04:03:02.969Z,7.75
2022-08-19T04:05:34.053Z,6.60
2022-08-19T04:08:03.861Z,9.27
2022-08-19T04:10:40.702Z,11.60
2022-08-19T04:15:53.921Z,9.68
2022-08-19T04:18:26.133Z,16.08
2022-08-19T04:20:57.996Z,25.92
2022-08-19T04:23:29.242Z,13.70
2022-08-19T04:25:59.137Z,8.00
2022-08-19T04:28:32.221Z,12.45
2022-08-19T04:31:03.960Z,16.95
2022-08-19T04:33:36.070Z,9.20
2022-08-19T04:36:07.266Z,8.70
2022-08-19T04:38:40.448Z,8.70
2022-08-19T04:41:30.062Z,21.67
2022-08-19T04:44:04.135Z,14.38
2022-08-19T04:49:13.193Z,10.35
2022-08-19T04:51:49.227Z,12.55
2022-08-19T04:54:38.315Z,10.73
2022-08-19T04:57:14.617Z,9.80
2022-08-19T04:59:47.705Z,9.52
2022-08-19T05:02:16.914Z,11.48
2022-08-19T05:04:46.946Z,12.43
2022-08-19T05:07:18.104Z,14.80
2022-08-19T05:09:57.999Z,6.20
2022-08-19T05:12:32.229Z,11.93
2022-08-19T05:15:03.859Z,11.38
2022-08-19T05:17:38.389Z,7.78
2022-08-19T05:20:30.017Z,10.68
2022-08-19T05:23:00.254Z,8.80
2022-08-19T05:25:31.176Z,11.52
2022-08-19T05:28:00.710Z,10.63
2022-08-19T05:30:46.838Z,7.55
2022-08-19T05:33:19.188Z,11.13
2022-08-19T05:35:49.192Z,12.00
2022-08-19T05:38:21.148Z,10.38
2022-08-19T05:40:51.069Z,10.60
2022-08-19T05:43:22.438Z,8.68
2022-08-19T05:45:53.917Z,13.13
2022-08-19T05:48:24.301Z,10.00
2022-08-19T05:50:54.092Z,9.68
2022-08-19T05:53:26.508Z,7.57
2022-08-19T05:55:55.997Z,11.75
2022-08-19T05:58:32.287Z,11.25
2022-08-19T06:01:14.495Z,12.90
2022-08-19T06:03:46.616Z,8.73
2022-08-19T06:06:16.058Z,9.60
2022-08-19T06:08:52.142Z,10.23
2022-08-19T06:11:26.574Z,7.30
2022-08-19T06:14:00.463Z,7.25
2022-08-19T06:16:31.366Z,8.77
2022-08-19T06:19:02.008Z,7.45
2022-08-19T06:21:38.165Z,10.85
2022-08-19T06:24:12.953Z,9.35
2022-08-19T06:29:23.399Z,8.98
2022-08-19T06:32:06.771Z,7.65
2022-08-19T06:34:39.814Z,5.47
2022-08-19T06:37:08.841Z,6.32
2022-08-19T06:39:42.555Z,7.80
2022-08-19T06:42:24.020Z,4.82
2022-08-19T06:44:54.012Z,5.78
2022-08-19T06:47:28.984Z,8.65
2022-08-19T06:50:16.711Z,5.43
2022-08-19T06:52:48.883Z,5.63
2022-08-19T06:55:24.215Z,5.38
2022-08-19T06:57:54.892Z,5.75
2022-08-19T07:00:24.106Z,5.20
2022-08-19T07:03:00.203Z,6.13
2022-08-19T07:05:33.316Z,8.98
2022-08-19T07:08:05.095Z,7.38
2022-08-19T07:10:36.497Z,7.45
2022-08-19T07:13:33.212Z,6.75
2022-08-19T07:16:14.678Z,7.00
2022-08-19T07:18:52.997Z,5.30
2022-08-19T07:21:29.604Z,7.82
2022-08-19T07:24:05.361Z,8.80
2022-08-19T07:26:42.403Z,7.85
2022-08-19T07:29:17.520Z,8.25
2022-08-19T07:31:45.966Z,5.68
2022-08-19T07:34:18.465Z,8.93
2022-08-19T07:36:51.343Z,7.60
2022-08-19T07:39:29.199Z,6.20
2022-08-19T07:42:04.440Z,5.00
2022-08-19T07:44:32.234Z,5.65
2022-08-19T07:47:06.629Z,9.15
2022-08-19T07:49:36.417Z,8.57
2022-08-19T07:52:09.917Z,9.13
2022-08-19T07:54:41.889Z,7.93
2022-08-19T07:57:10.253Z,10.30
2022-08-19T07:59:42.637Z,6.78
2022-08-19T08:02:14.345Z,4.20
2022-08-19T08:05:03.431Z,11.25
2022-08-19T08:07:53.647Z,13.95
2022-08-19T08:10:21.607Z,8.48
2022-08-19T08:13:10.087Z,5.88
2022-08-19T08:15:42.965Z,6.32
2022-08-19T08:18:15.523Z,7.55
2022-08-19T08:20:46.440Z,9.85
2022-08-19T08:23:28.955Z,8.40
2022-08-19T08:26:00.731Z,6.93
2022-08-19T08:28:33.725Z,7.60
2022-08-19T08:31:09.482Z,7.97
2022-08-19T08:33:42.545Z,8.57
2022-08-19T08:36:13.785Z,11.63
2022-08-19T08:38:49.501Z,9.15
2022-08-19T08:41:31.187Z,8.60
2022-08-19T08:44:00.416Z,6.57
2022-08-19T08:46:45.131Z,10.45
2022-08-19T08:49:33.055Z,8.00
2022-08-19T08:52:37.054Z,6.78
2022-08-19T08:55:25.940Z,9.90
2022-08-19T08:58:07.960Z,6.50
2022-08-19T09:00:41.872Z,5.47
2022-08-19T09:03:31.624Z,9.80
2022-08-19T09:06:33.624Z,7.65
2022-08-19T09:09:19.318Z,5.28
2022-08-19T09:12:07.628Z,4.10
2022-08-19T09:15:05.961Z,3.75
2022-08-19T09:17:36.250Z,7.87
2022-08-19T09:20:22.139Z,4.70
2022-08-19T09:22:53.828Z,7.30
2022-08-19T09:25:29.671Z,4.40
2022-08-19T09:28:02.598Z,8.50
2022-08-19T09:30:43.165Z,6.47
2022-08-19T09:33:12.274Z,7.60
2022-08-19T09:35:50.217Z,13.77
2022-08-19T09:38:27.953Z,5.95
2022-08-19T09:40:59.602Z,4.50
2022-08-19T09:43:33.680Z,9.70
2022-08-19T09:46:18.003Z,8.32
2022-08-19T09:48:52.542Z,5.00
2022-08-19T09:51:32.637Z,5.50
2022-08-19T09:54:11.189Z,5.43
2022-08-19T09:56:43.522Z,6.40
2022-08-19T09:59:15.693Z,14.02
2022-08-19T10:01:44.426Z,9.23
2022-08-19T10:04:20.570Z,6.32
2022-08-19T10:06:53.539Z,7.63
2022-08-19T10:09:34.264Z,6.13
2022-08-19T10:12:11.257Z,9.90
2022-08-19T10:14:40.756Z,7.60
2022-08-19T10:17:19.238Z,11.65
2022-08-19T10:19:55.028Z,12.18
2022-08-19T10:22:27.076Z,5.28
2022-08-19T10:24:58.051Z,7.55
2022-08-19T10:27:29.490Z,6.70
2022-08-19T10:30:01.598Z,7.82
2022-08-19T10:32:34.556Z,7.57
2022-08-19T10:35:11.868Z,6.43
2022-08-19T10:37:49.834Z,8.95
2022-08-19T10:40:29.098Z,7.63
2022-08-19T10:43:01.205Z,6.28
2022-08-19T10:45:34.072Z,10.32
2022-08-19T10:48:06.920Z,7.35
2022-08-19T10:51:01.519Z,6.30
2022-08-19T10:53:31.279Z,10.82
2022-08-19T10:56:21.028Z,6.22
2022-08-19T10:58:52.771Z,6.68
2022-08-19T11:01:25.723Z,7.63
2022-08-19T11:03:57.268Z,7.65
2022-08-19T11:06:27.148Z,10.32
2022-08-19T11:08:56.525Z,7.38
2022-08-19T11:11:25.712Z,6.43
2022-08-19T11:13:59.352Z,6.95
2022-08-19T11:16:33.469Z,7.47
2022-08-19T11:19:06.603Z,5.88
2022-08-19T11:21:40.209Z,6.72
2022-08-19T11:24:14.693Z,5.95
2022-08-19T11:26:45.516Z,7.88
2022-08-19T11:29:15.972Z,11.57
2022-08-19T11:31:45.874Z,6.05
2022-08-19T11:34:19.434Z,11.00
2022-08-19T11:36:51.909Z,6.35
2022-08-19T11:39:24.488Z,6.80
2022-08-19T11:41:55.324Z,6.85
2022-08-19T11:44:24.042Z,9.07
2022-08-19T11:46:53.695Z,5.75
2022-08-19T11:49:23.547Z,9.30
2022-08-19T11:51:53.794Z,6.97
2022-08-19T11:54:23.492Z,8.77
2022-08-19T11:56:54.234Z,8.68
2022-08-19T11:59:30.819Z,5.85
2022-08-19T12:02:00.669Z,9.35
2022-08-19T12:04:32.903Z,8.32
2022-08-19T12:07:03.515Z,10.20
2022-08-19T12:09:36.523Z,7.80
2022-08-19T12:12:11.205Z,9.93
2022-08-19T12:14:43.992Z,7.80
2022-08-19T12:17:17.303Z,9.27
2022-08-19T12:19:47.906Z,14.88
2022-08-19T12:22:17.941Z,10.10
2022-08-19T12:24:47.141Z,7.30
2022-08-19T12:27:18.266Z,8.43
2022-08-19T12:30:03.748Z,8.68
2022-08-19T12:32:34.545Z,11.43
2022-08-19T12:35:05.269Z,11.88
2022-08-19T12:37:40.357Z,13.23
2022-08-19T12:40:11.999Z,8.85
2022-08-19T12:42:46.894Z,8.98
2022-08-19T12:45:19.524Z,11.90
2022-08-19T12:47:51.999Z,10.55
2022-08-19T12:50:25.608Z,9.88
2022-08-19T12:52:53.505Z,9.23
2022-08-19T12:55:24.801Z,9.05
2022-08-19T12:57:55.303Z,8.52
2022-08-19T13:00:27.309Z,6.38
2022-08-19T13:02:59.357Z,5.88
2022-08-19T13:05:33.410Z,13.43
2022-08-19T13:08:06.213Z,11.90
2022-08-19T13:10:48.410Z,10.63
2022-08-19T13:13:20.088Z,6.28
2022-08-19T13:15:49.008Z,14.18
2022-08-19T13:18:16.607Z,16.13
2022-08-19T13:20:52.501Z,10.20
2022-08-19T13:23:25.402Z,11.65
2022-08-19T13:26:10.385Z,8.18
2022-08-19T13:29:02.242Z,13.25
2022-08-19T13:31:57.252Z,9.40
2022-08-19T13:34:35.996Z,11.13
2022-08-19T13:37:05.361Z,12.43
2022-08-19T13:39:34.734Z,10.77
2022-08-19T13:42:10.010Z,10.45
2022-08-19T13:44:39.842Z,9.80
2022-08-19T13:47:11.582Z,13.45
2022-08-19T13:49:43.212Z,8.63
2022-08-19T13:52:10.390Z,7.18
2022-08-19T13:54:39.575Z,8.05
2022-08-19T13:57:07.554Z,9.93
2022-08-19T13:59:40.683Z,8.65
2022-08-19T14:02:11.854Z,6.05
2022-08-19T14:04:43.054Z,6.22
2022-08-19T14:07:11.546Z,9.93
2022-08-19T14:09:42.941Z,14.50
2022-08-19T14:12:15.912Z,6.80
2022-08-19T14:14:59.858Z,9.18
2022-08-19T14:17:32.413Z,13.38
2022-08-19T14:20:17.502Z,9.35
2022-08-19T14:22:51.748Z,11.57
2022-08-19T14:25:28.409Z,8.27
2022-08-19T14:27:59.312Z,8.65
2022-08-19T14:30:31.224Z,9.25
2022-08-19T14:33:00.554Z,7.78
2022-08-19T14:35:33.352Z,7.53
2022-08-19T14:38:06.772Z,10.10
2022-08-19T14:40:38.080Z,8.75
2022-08-19T14:43:09.709Z,9.27
2022-08-19T14:45:44.113Z,8.23
2022-08-19T14:48:19.374Z,7.78
2022-08-19T14:50:52.273Z,8.55
2022-08-19T14:53:22.093Z,8.32
2022-08-19T14:55:53.744Z,7.90
2022-08-19T14:58:28.292Z,8.02
2022-08-19T15:01:01.157Z,7.18
2022-08-19T15:03:36.614Z,12.85
2022-08-19T15:06:06.132Z,18.80
2022-08-19T15:08:40.317Z,26.98
2022-08-19T15:11:19.136Z,30.92
2022-08-19T15:13:47.742Z,32.63
2022-08-19T15:16:21.000Z,31.80
2022-08-19T15:18:56.757Z,34.05
2022-08-19T15:21:28.341Z,30.95
2022-08-19T15:23:57.853Z,37.75
2022-08-19T15:26:40.975Z,38.45
2022-08-19T15:29:11.465Z,38.60
2022-08-19T15:31:44.578Z,29.27
2022-08-19T15:34:15.755Z,27.05
2022-08-19T15:36:43.560Z,25.45
2022-08-19T15:39:14.460Z,32.45
2022-08-19T15:41:43.617Z,30.15
2022-08-19T15:44:20.488Z,31.38
2022-08-19T15:46:51.140Z,29.13
2022-08-19T15:49:22.686Z,33.17
2022-08-19T15:51:56.650Z,28.63
2022-08-19T15:54:27.982Z,26.92
2022-08-19T15:57:17.969Z,25.70
2022-08-19T16:00:06.452Z,27.50
2022-08-19T16:02:58.947Z,29.00
2022-08-19T16:05:49.976Z,39.25
2022-08-19T16:08:17.642Z,24.15
2022-08-19T16:10:46.853Z,30.23
2022-08-19T16:13:18.295Z,29.77
2022-08-19T16:15:47.257Z,20.02
2022-08-19T16:18:16.208Z,29.83
2022-08-19T16:20:49.104Z,31.05
2022-08-19T16:23:21.167Z,33.17
2022-08-19T16:25:52.002Z,35.30
2022-08-19T16:28:24.023Z,32.35
2022-08-19T16:30:54.634Z,26.02
2022-08-19T16:33:30.462Z,31.35
2022-08-19T16:36:06.891Z,25.77
2022-08-19T16:38:42.035Z,28.42
2022-08-19T16:41:12.295Z,33.50
2022-08-19T16:43:41.578Z,22.20
2022-08-19T16:46:12.664Z,26.50
2022-08-19T16:48:48.592Z,26.75
2022-08-19T16:51:18.245Z,30.42
2022-08-19T16:53:49.484Z,67.68
2022-08-19T16:56:20.420Z,40.58
2022-08-19T16:58:54.437Z,41.58
2022-08-19T17:01:23.380Z,33.13
2022-08-19T17:03:55.893Z,57.53
2022-08-19T17:06:33.655Z,24.40
2022-08-19T17:09:08.899Z,34.97
2022-08-19T17:11:39.301Z,22.35
2022-08-19T17:14:13.114Z,23.65
2022-08-19T17:16:43.475Z,23.70
2022-08-19T17:19:13.139Z,17.60
2022-08-19T17:21:40.969Z,15.70
2022-08-19T17:24:09.211Z,23.92
2022-08-19T17:26:49.956Z,19.10
2022-08-19T17:29:21.261Z,18.45
2022-08-19T17:31:52.105Z,23.17
2022-08-19T17:34:22.816Z,13.00
2022-08-19T17:36:53.980Z,20.35
2022-08-19T17:39:25.205Z,15.63
2022-08-19T17:41:56.362Z,19.85
2022-08-19T17:44:35.601Z,12.02
2022-08-19T17:47:05.177Z,11.90
2022-08-19T17:49:35.716Z,12.48
2022-08-19T17:52:10.087Z,17.15
2022-08-19T17:54:43.117Z,14.63
2022-08-19T17:57:13.350Z,13.70
2022-08-19T17:59:41.026Z,17.15
2022-08-19T18:02:14.151Z,17.17
2022-08-19T18:04:48.773Z,9.35
2022-08-19T18:07:25.754Z,16.17
2022-08-19T18:09:55.846Z,14.98
2022-08-19T18:12:39.688Z,17.55
2022-08-19T18:15:14.446Z,12.38
2022-08-19T18:17:45.268Z,17.80
2022-08-19T18:20:16.930Z,15.75
2022-08-19T18:22:47.750Z,11.60
2022-08-19T18:25:28.321Z,15.35
2022-08-19T18:28:00.589Z,17.85
2022-08-19T18:30:36.610Z,15.32
2022-08-19T18:33:16.034Z,14.35
2022-08-19T18:35:50.708Z,23.30
2022-08-19T18:41:34.553Z,20.27
2022-08-19T18:44:33.237Z,16.88
2022-08-19T18:47:20.815Z,14.23
2022-08-19T18:49:51.689Z,15.73
2022-08-19T18:52:38.132Z,12.35
2022-08-19T18:55:09.864Z,11.68
2022-08-19T18:57:37.774Z,12.80
2022-08-19T19:00:11.077Z,14.15
2022-08-19T19:02:41.318Z,18.00
2022-08-19T19:05:08.981Z,15.02
2022-08-19T19:07:43.114Z,16.75
2022-08-19T19:10:11.886Z,18.92
2022-08-19T19:12:53.104Z,16.45
2022-08-19T19:15:25.605Z,11.75
2022-08-19T19:17:59.224Z,13.55
2022-08-19T19:20:36.655Z,13.30
2022-08-19T19:23:11.329Z,11.50
2022-08-19T19:25:50.004Z,21.80
2022-08-19T19:28:31.521Z,23.95
2022-08-19T19:31:00.095Z,21.63
2022-08-19T19:33:34.789Z,23.58
2022-08-19T19:36:03.113Z,19.70
2022-08-19T19:38:32.852Z,16.52
2022-08-19T19:41:02.356Z,19.98
2022-08-19T19:43:41.021Z,22.98
2022-08-19T19:46:09.401Z,18.30
2022-08-19T19:48:41.468Z,15.90
2022-08-19T19:51:12.954Z,22.17
2022-08-19T19:53:42.341Z,15.82
2022-08-19T19:56:12.433Z,15.23
2022-08-19T19:58:40.333Z,20.27
2022-08-19T20:01:13.557Z,19.85
2022-08-19T20:03:53.298Z,16.92
2022-08-19T20:06:25.349Z,12.73
2022-08-19T20:09:16.310Z,20.75
2022-08-19T20:11:58.965Z,16.63
2022-08-19T20:14:47.605Z,16.80
2022-08-19T20:17:18.896Z,14.18
2022-08-19T20:19:50.855Z,15.07
2022-08-19T20:22:21.463Z,13.65
2022-08-19T20:24:51.174Z,17.60
2022-08-19T20:27:22.823Z,17.63
2022-08-19T20:32:29.357Z,12.98
2022-08-19T20:35:04.650Z,14.68
2022-08-19T20:40:09.055Z,17.65
2022-08-19T20:42:43.765Z,17.15
2022-08-19T20:45:32.178Z,20.50
2022-08-19T20:48:08.971Z,16.42
2022-08-19T20:50:38.235Z,20.65
2022-08-19T20:53:17.206Z,19.02
2022-08-19T20:55:50.136Z,22.83
2022-08-19T20:58:21.712Z,16.77
2022-08-19T21:00:55.199Z,14.18
2022-08-19T21:03:31.070Z,10.88
2022-08-19T21:05:59.235Z,21.10
2022-08-19T21:08:30.346Z,18.08
2022-08-19T21:11:04.789Z,12.10
2022-08-19T21:13:36.635Z,15.50
2022-08-19T21:16:09.595Z,15.77
2022-08-19T21:18:40.360Z,15.07
2022-08-19T21:21:09.601Z,16.92
2022-08-19T21:23:42.118Z,19.67
2022-08-19T21:26:10.113Z,14.77
2022-08-19T21:28:41.481Z,23.55
2022-08-19T21:31:14.100Z,21.27
2022-08-19T21:33:42.411Z,14.48
2022-08-19T21:36:14.665Z,14.45
2022-08-19T21:38:44.309Z,16.45
2022-08-19T21:41:12.111Z,18.88
2022-08-19T21:43:44.431Z,14.55
2022-08-19T21:46:13.236Z,13.38
2022-08-19T21:48:46.332Z,13.18
2022-08-19T21:51:15.926Z,16.73
2022-08-19T21:53:45.318Z,16.00
2022-08-19T21:56:19.980Z,16.25
2022-08-19T21:58:51.963Z,11.20
2022-08-19T22:01:24.967Z,17.48
2022-08-19T22:03:59.149Z,16.27
2022-08-19T22:06:28.459Z,18.60
2022-08-19T22:09:00.454Z,21.90
2022-08-19T22:11:32.078Z,16.45
2022-08-19T22:14:02.036Z,14.27
2022-08-19T22:16:37.001Z,15.60
2022-08-19T22:19:08.512Z,18.38
2022-08-19T22:21:43.240Z,14.77
2022-08-19T22:24:16.593Z,17.77
2022-08-19T22:29:33.824Z,24.67
2022-08-19T22:32:17.793Z,16.25
2022-08-19T22:35:00.843Z,21.40
2022-08-19T22:37:35.029Z,13.27
2022-08-19T22:42:41.722Z,20.30
2022-08-19T22:45:13.843Z,19.90
2022-08-19T22:47:45.350Z,12.43
2022-08-19T22:50:16.645Z,16.33
2022-08-19T22:52:51.708Z,16.30
2022-08-19T22:55:20.809Z,12.02
2022-08-19T22:57:54.970Z,18.63
2022-08-19T23:00:30.474Z,14.20
2022-08-19T23:02:59.229Z,14.45
2022-08-19T23:05:31.252Z,21.17
2022-08-19T23:08:03.690Z,16.45
2022-08-19T23:10:33.272Z,18.35
2022-08-19T23:13:05.327Z,24.33
2022-08-19T23:15:38.657Z,25.77
2022-08-19T23:18:09.143Z,15.48
2022-08-19T23:20:42.690Z,20.67
2022-08-19T23:23:11.893Z,22.87
2022-08-19T23:25:41.059Z,18.60
2022-08-19T23:28:30.557Z,17.83
2022-08-19T23:31:01.530Z,20.00
2022-08-19T23:33:51.521Z,17.83
2022-08-19T23:36:24.852Z,18.55
2022-08-19T23:38:56.619Z,13.82
2022-08-19T23:41:26.793Z,18.92
2022-08-19T23:43:56.874Z,32.42
2022-08-19T23:46:32.055Z,24.08
2022-08-19T23:49:10.345Z,28.77
2022-08-19T23:51:40.228Z,25.50
2022-08-19T23:54:09.231Z,18.88
2022-08-19T23:56:40.838Z,13.38
2022-08-19T23:59:11.609Z,13.50
